Time;durP1;ratioP1;P1;durP2;ratioP2;P2;SDS_P1;SDS_P2;PMS_P1;PMS_P2;Temp;Humidity;BMP_temperature;BMP_pressure;BME280_temperature;BME280_humidity;BME280_pressure;Samples;Min_cycle;Max_cycle;Signal;HPM_P1;HPM_P2
2022/04/05 00:02:22;;;;;;;23.60;4.45;;;34.40;25.00;;;;;;5029369;28;20521;-63
2022/04/05 00:04:48;;;;;;;27.60;4.30;;;34.40;25.00;;;;;;5033124;28;20117;-64
2022/04/05 00:07:15;;;;;;;23.23;4.50;;;34.40;25.10;;;;;;5031547;28;20082;-62
2022/04/05 00:09:41;;;;;;;32.17;4.43;;;34.30;24.70;;;;;;5030086;28;20096;-63
2022/04/05 00:12:08;;;;;;;24.50;4.88;;;34.20;24.50;;;;;;5030097;28;20076;-61
2022/04/05 00:14:35;;;;;;;22.38;4.70;;;34.10;24.80;;;;;;5033321;28;20437;-63
2022/04/05 00:17:02;;;;;;;16.88;3.85;;;33.90;24.70;;;;;;5031374;28;20107;-64
2022/04/05 00:19:29;;;;;;;19.13;4.55;;;33.80;24.50;;;;;;5032505;28;20124;-64
2022/04/05 00:21:55;;;;;;;26.20;4.40;;;33.70;24.60;;;;;;5053945;28;20084;-63
2022/04/05 00:24:22;;;;;;;22.00;4.30;;;33.70;24.50;;;;;;5032487;28;20612;-63
2022/04/05 00:26:49;;;;;;;31.95;8.88;;;33.60;25.10;;;;;;5047230;28;20104;-62
2022/04/05 00:29:15;;;;;;;22.33;6.65;;;33.50;25.80;;;;;;5030171;28;20064;-61
2022/04/05 00:31:42;;;;;;;33.25;4.43;;;33.40;25.70;;;;;;5051079;28;20062;-64
2022/04/05 00:34:08;;;;;;;96.13;10.80;;;33.50;25.30;;;;;;5033028;28;20515;-67
2022/04/05 00:36:35;;;;;;;32.95;5.88;;;33.30;25.00;;;;;;5048705;28;20402;-67
2022/04/05 00:39:01;;;;;;;27.35;4.60;;;33.30;25.60;;;;;;5048673;28;20110;-66
2022/04/05 00:41:27;;;;;;;20.65;4.35;;;33.30;25.80;;;;;;5033230;28;20445;-65
2022/04/05 00:43:54;;;;;;;17.52;4.10;;;33.30;25.80;;;;;;5046299;28;20075;-62
2022/04/05 00:46:20;;;;;;;25.13;4.68;;;33.30;25.50;;;;;;5047742;28;20552;-62
2022/04/05 00:48:52;;;;;;;32.53;4.32;;;33.20;25.10;;;;;;5030051;28;20122;-62
2022/04/05 00:51:20;;;;;;;27.38;4.18;;;33.20;25.30;;;;;;5030438;28;20535;-66
2022/04/05 00:53:52;;;;;;;22.92;4.03;;;33.10;25.10;;;;;;5029152;28;20067;-68
2022/04/05 00:56:20;;;;;;;15.32;3.50;;;33.10;24.90;;;;;;5032595;28;20469;-66
2022/04/05 00:58:49;;;;;;;23.23;4.07;;;32.90;25.00;;;;;;5029866;28;20067;-61
2022/04/05 01:01:18;;;;;;;19.33;4.18;;;32.80;24.90;;;;;;5031011;28;20098;-63
2022/04/05 01:03:49;;;;;;;16.63;4.03;;;32.70;24.90;;;;;;5033113;28;20442;-65
2022/04/05 01:06:24;;;;;;;23.85;4.22;;;32.70;25.30;;;;;;5053148;28;20534;-64
2022/04/05 01:08:50;;;;;;;29.73;4.18;;;32.60;25.50;;;;;;5036407;28;20546;-63
2022/04/05 01:11:17;;;;;;;20.02;3.47;;;32.60;25.50;;;;;;5044610;28;20160;-62
2022/04/05 01:13:44;;;;;;;22.27;4.13;;;32.60;25.50;;;;;;5030160;28;20112;-63
2022/04/05 01:16:11;;;;;;;24.42;4.40;;;32.50;25.90;;;;;;5031915;28;20077;-65
2022/04/05 01:18:38;;;;;;;36.13;4.47;;;32.40;25.90;;;;;;5026884;28;20072;-63
2022/04/05 01:21:05;;;;;;;31.10;4.65;;;32.40;25.90;;;;;;5047100;28;20112;-61
2022/04/05 01:23:32;;;;;;;34.88;5.47;;;32.30;26.30;;;;;;5029196;28;20123;-62
2022/04/05 01:26:00;;;;;;;17.20;3.47;;;32.30;25.50;;;;;;5029901;28;20169;-64
2022/04/05 01:28:26;;;;;;;45.30;4.47;;;32.30;25.30;;;;;;5032366;28;20495;-64
2022/04/05 01:30:53;;;;;;;22.60;4.35;;;32.40;25.40;;;;;;5033968;28;20080;-64
2022/04/05 01:33:20;;;;;;;35.45;4.38;;;32.50;26.00;;;;;;5035768;28;20516;-65
2022/04/05 01:35:46;;;;;;;22.63;3.67;;;32.40;26.30;;;;;;5031077;28;20078;-68
2022/04/05 01:38:14;;;;;;;35.85;4.40;;;32.30;25.30;;;;;;5032097;28;20095;-65
2022/04/05 01:40:40;;;;;;;39.05;5.50;;;32.20;25.40;;;;;;5047193;28;20085;-67
2022/04/05 01:43:07;;;;;;;30.77;3.85;;;32.10;25.50;;;;;;5052153;28;20072;-66
2022/04/05 01:45:34;;;;;;;25.33;4.03;;;32.00;25.70;;;;;;5037869;28;20104;-65
2022/04/05 01:48:01;;;;;;;22.05;3.80;;;31.90;25.80;;;;;;5036614;28;20080;-64
2022/04/05 01:50:27;;;;;;;43.00;4.78;;;31.90;26.20;;;;;;5034571;28;20084;-64
2022/04/05 01:52:53;;;;;;;31.33;4.30;;;31.80;25.70;;;;;;5034854;28;20741;-64
2022/04/05 01:55:20;;;;;;;32.38;4.30;;;31.70;26.20;;;;;;5049517;28;20126;-63
2022/04/05 01:57:46;;;;;;;26.27;4.03;;;31.60;26.40;;;;;;5057335;28;20103;-66
2022/04/05 02:00:17;;;;;;;32.88;4.75;;;31.50;26.60;;;;;;5039035;28;20600;-64
2022/04/05 02:02:43;;;;;;;31.73;3.70;;;31.40;26.80;;;;;;5038325;28;20179;-64
2022/04/05 02:05:13;;;;;;;37.50;4.20;;;31.30;26.90;;;;;;5036813;28;20079;-65
2022/04/05 02:07:39;;;;;;;23.05;3.97;;;31.20;26.60;;;;;;5018195;28;20084;-64
2022/04/05 02:10:06;;;;;;;31.33;4.53;;;31.20;27.00;;;;;;5031788;28;20112;-62
2022/04/05 02:12:33;;;;;;;30.83;5.05;;;31.20;29.10;;;;;;5033212;28;20081;-70
2022/04/05 02:14:59;;;;;;;47.95;6.10;;;31.20;29.90;;;;;;5035672;28;20096;-69
2022/04/05 02:17:26;;;;;;;51.72;5.93;;;31.00;30.80;;;;;;5028398;28;21239;-64
2022/04/05 02:19:54;;;;;;;40.30;5.65;;;30.90;31.80;;;;;;5049607;28;20085;-65
2022/04/05 02:22:20;;;;;;;41.25;6.70;;;30.80;32.20;;;;;;5032910;28;20536;-65
2022/04/05 02:24:46;;;;;;;50.00;6.90;;;30.70;32.70;;;;;;5036878;28;20102;-62
2022/04/05 02:27:13;;;;;;;42.08;5.47;;;30.60;33.20;;;;;;5017443;28;20089;-65
2022/04/05 02:29:39;;;;;;;27.83;4.38;;;30.40;33.80;;;;;;5049347;28;20080;-66
2022/04/05 02:32:06;;;;;;;38.10;4.97;;;30.20;34.40;;;;;;5036544;28;20076;-64
2022/04/05 02:34:32;;;;;;;22.75;4.88;;;30.00;34.90;;;;;;5050374;28;20547;-62
2022/04/05 02:36:59;;;;;;;25.98;4.88;;;29.90;35.50;;;;;;5031679;28;20072;-63
2022/04/05 02:39:25;;;;;;;29.42;5.97;;;29.90;36.00;;;;;;5055713;28;20080;-66
2022/04/05 02:41:52;;;;;;;18.85;4.85;;;29.90;36.40;;;;;;5050205;28;20106;-63
2022/04/05 02:44:18;;;;;;;29.83;5.15;;;29.80;36.80;;;;;;5036409;28;20072;-65
2022/04/05 02:46:44;;;;;;;26.77;4.80;;;29.50;37.50;;;;;;5033557;28;20530;-63
2022/04/05 02:49:13;;;;;;;34.25;5.47;;;29.50;37.80;;;;;;5047490;28;20226;-64
2022/04/05 02:51:40;;;;;;;25.25;5.00;;;29.40;38.10;;;;;;5047968;28;20065;-64
2022/04/05 02:54:06;;;;;;;27.27;5.28;;;29.30;38.40;;;;;;5032621;28;20425;-62
2022/04/05 02:56:33;;;;;;;21.25;4.90;;;29.10;38.70;;;;;;5031938;28;20072;-64
2022/04/05 02:58:59;;;;;;;28.95;4.63;;;29.00;39.00;;;;;;5031381;28;20072;-61
2022/04/05 03:01:26;;;;;;;21.70;3.97;;;28.90;39.40;;;;;;5032635;28;20080;-64
2022/04/05 03:03:52;;;;;;;28.77;4.30;;;28.70;39.70;;;;;;5029426;28;20076;-63
2022/04/05 03:06:18;;;;;;;37.22;4.45;;;28.60;40.00;;;;;;5033744;28;20203;-61
2022/04/05 03:08:46;;;;;;;22.63;4.28;;;28.50;40.20;;;;;;5035852;28;20173;-62
2022/04/05 03:11:13;;;;;;;32.30;4.72;;;28.50;40.30;;;;;;5048698;28;20140;-65
2022/04/05 03:13:39;;;;;;;28.88;4.88;;;28.50;40.50;;;;;;5047154;28;20068;-66
2022/04/05 03:16:06;;;;;;;26.58;3.85;;;28.40;40.70;;;;;;5052003;28;20080;-63
2022/04/05 03:18:32;;;;;;;33.70;4.43;;;28.30;40.80;;;;;;5033063;28;20076;-65
2022/04/05 03:20:59;;;;;;;27.08;4.18;;;28.10;41.00;;;;;;5038140;28;20463;-63
2022/04/05 03:23:26;;;;;;;29.30;4.72;;;28.00;41.30;;;;;;5036721;28;20157;-63
2022/04/05 03:25:53;;;;;;;32.47;4.00;;;28.00;41.60;;;;;;5033904;28;20089;-64
2022/04/05 03:28:20;;;;;;;21.30;4.28;;;27.80;41.70;;;;;;5048928;28;20181;-63
2022/04/05 03:30:47;;;;;;;22.92;3.75;;;27.80;41.90;;;;;;5032704;28;20079;-63
2022/04/05 03:33:15;;;;;;;28.33;4.53;;;27.70;42.10;;;;;;5030824;28;20159;-64
2022/04/05 03:35:41;;;;;;;32.00;4.50;;;27.70;42.40;;;;;;5051652;28;20428;-62
2022/04/05 03:38:08;;;;;;;22.52;4.28;;;27.60;42.50;;;;;;5033954;28;20095;-65
2022/04/05 03:40:35;;;;;;;21.20;3.92;;;27.50;42.70;;;;;;5032200;28;20092;-63
2022/04/05 03:43:01;;;;;;;22.40;4.22;;;27.50;42.80;;;;;;5032398;28;20532;-63
2022/04/05 03:45:28;;;;;;;20.67;4.60;;;27.50;42.90;;;;;;5031105;28;20096;-62
2022/04/05 03:47:54;;;;;;;29.45;4.18;;;27.40;43.10;;;;;;5029279;28;20121;-61
2022/04/05 03:50:22;;;;;;;23.63;4.35;;;27.30;43.10;;;;;;5055134;28;20076;-63
2022/04/05 03:52:48;;;;;;;22.77;4.10;;;27.20;43.10;;;;;;5030748;28;20088;-64
2022/04/05 03:55:14;;;;;;;28.05;4.22;;;27.20;43.10;;;;;;5031403;28;20084;-63
2022/04/05 03:57:41;;;;;;;30.80;4.22;;;27.10;43.10;;;;;;5051507;28;20174;-62
2022/04/05 04:00:08;;;;;;;28.70;4.93;;;27.00;43.10;;;;;;5030155;28;20534;-62
2022/04/05 04:02:36;;;;;;;28.05;4.05;;;27.00;43.30;;;;;;5032424;28;20080;-63
2022/04/05 04:05:03;;;;;;;19.15;4.07;;;26.90;43.40;;;;;;5031220;28;20076;-64
2022/04/05 04:07:29;;;;;;;25.58;4.70;;;26.80;43.30;;;;;;5045626;28;20084;-65
2022/04/05 04:10:02;;;;;;;25.02;4.20;;;26.80;43.40;;;;;;5032248;28;20108;-65
2022/04/05 04:12:28;;;;;;;20.05;4.28;;;26.80;43.50;;;;;;5034255;28;20115;-61
2022/04/05 04:14:54;;;;;;;18.05;4.35;;;26.70;43.30;;;;;;5033081;28;20552;-63
2022/04/05 04:17:21;;;;;;;34.65;4.55;;;26.70;43.20;;;;;;5045852;28;20653;-62
2022/04/05 04:19:47;;;;;;;22.50;4.53;;;26.70;43.30;;;;;;5047810;28;20592;-63
2022/04/05 04:22:13;;;;;;;19.65;4.38;;;26.60;43.40;;;;;;5031559;28;20110;-62
2022/04/05 04:24:40;;;;;;;25.85;4.97;;;26.60;43.40;;;;;;5014454;28;20080;-62
2022/04/05 04:27:06;;;;;;;21.38;4.60;;;26.60;43.50;;;;;;5030224;28;20084;-63
2022/04/05 04:29:33;;;;;;;25.33;4.00;;;26.50;44.10;;;;;;5033708;28;20114;-62
2022/04/05 04:31:59;;;;;;;21.63;3.58;;;26.40;43.60;;;;;;5047749;28;20073;-63
2022/04/05 04:34:26;;;;;;;25.42;4.75;;;26.30;43.70;;;;;;5032723;28;20068;-64
2022/04/05 04:36:52;;;;;;;24.65;4.82;;;26.20;44.20;;;;;;5039319;28;20107;-62
2022/04/05 04:39:18;;;;;;;20.02;4.05;;;26.10;44.50;;;;;;5033786;28;20226;-61
2022/04/05 04:41:45;;;;;;;34.90;5.35;;;26.10;44.50;;;;;;5014775;28;20569;-66
2022/04/05 04:44:11;;;;;;;17.48;3.80;;;26.10;44.70;;;;;;5045747;28;20567;-63
2022/04/05 04:46:38;;;;;;;24.88;4.07;;;26.00;44.80;;;;;;5028544;28;20118;-63
2022/04/05 04:49:04;;;;;;;19.10;3.70;;;25.90;45.00;;;;;;5032255;28;20084;-59
2022/04/05 04:51:31;;;;;;;24.38;3.83;;;25.90;45.30;;;;;;5049368;28;20065;-62
2022/04/05 04:53:57;;;;;;;20.35;3.78;;;25.70;45.60;;;;;;5030954;28;20434;-65
2022/04/05 04:56:24;;;;;;;24.90;3.47;;;25.70;45.80;;;;;;5013918;28;20614;-63
2022/04/05 04:58:50;;;;;;;50.22;5.05;;;25.70;45.90;;;;;;5027571;28;20103;-62
2022/04/05 05:01:16;;;;;;;24.35;4.70;;;25.60;46.10;;;;;;5029602;28;20068;-62
2022/04/05 05:03:43;;;;;;;35.00;4.75;;;25.60;46.20;;;;;;5028985;28;20126;-62
2022/04/05 05:06:10;;;;;;;26.88;4.93;;;25.50;46.50;;;;;;5031624;28;20159;-65
2022/04/05 05:08:36;;;;;;;29.20;4.13;;;25.50;46.60;;;;;;5016339;28;20081;-63
2022/04/05 05:11:03;;;;;;;24.13;4.13;;;25.50;46.60;;;;;;5028874;28;20502;-62
2022/04/05 05:13:31;;;;;;;40.42;4.78;;;25.40;46.70;;;;;;5032936;28;20076;-65
2022/04/05 05:15:58;;;;;;;31.13;5.22;;;25.40;47.00;;;;;;5049463;28;20176;-63
2022/04/05 05:18:25;;;;;;;36.65;5.47;;;25.40;47.10;;;;;;5035278;28;20086;-64
2022/04/05 05:20:51;;;;;;;43.15;6.00;;;25.40;47.20;;;;;;5033962;28;20160;-63
2022/04/05 05:23:18;;;;;;;37.15;6.40;;;25.30;47.30;;;;;;5034197;28;20097;-63
2022/04/05 05:25:45;;;;;;;30.23;7.35;;;25.20;47.50;;;;;;5033168;28;20563;-62
2022/04/05 05:28:11;;;;;;;21.60;6.70;;;25.20;47.90;;;;;;5055010;28;20427;-62
2022/04/05 05:30:38;;;;;;;31.60;6.63;;;25.10;47.90;;;;;;5038431;23;20120;-63
2022/04/05 05:33:04;;;;;;;31.08;7.88;;;25.10;48.00;;;;;;5015016;28;20494;-64
2022/04/05 05:35:31;;;;;;;31.33;7.70;;;25.00;48.10;;;;;;5035477;23;20133;-61
2022/04/05 05:37:57;;;;;;;39.30;7.82;;;25.00;48.20;;;;;;5030894;28;20116;-61
2022/04/05 05:40:24;;;;;;;29.67;7.28;;;24.90;48.30;;;;;;5030148;28;20116;-61
2022/04/05 05:42:59;;;;;;;42.17;6.97;;;24.90;48.40;;;;;;5046071;28;20152;-61
2022/04/05 05:45:27;;;;;;;28.23;5.47;;;24.90;48.50;;;;;;5029303;28;21065;-63
2022/04/05 05:47:54;;;;;;;30.73;5.80;;;24.80;49.10;;;;;;5029472;28;20530;-62
2022/04/05 05:50:22;;;;;;;23.63;5.40;;;24.80;49.10;;;;;;5029683;28;20088;-62
2022/04/05 05:52:48;;;;;;;30.10;5.75;;;24.70;49.20;;;;;;5030753;28;20076;-62
2022/04/05 05:55:17;;;;;;;33.95;5.10;;;24.70;49.40;;;;;;5045503;28;20204;-62
2022/04/05 05:57:44;;;;;;;25.58;6.18;;;24.70;49.50;;;;;;5046421;28;20144;-62
2022/04/05 06:00:17;;;;;;;28.13;5.63;;;24.50;49.90;;;;;;5028683;28;20169;-61
2022/04/05 06:02:45;;;;;;;25.67;5.25;;;24.50;50.20;;;;;;5029566;28;20253;-62
2022/04/05 06:05:12;;;;;;;28.60;5.70;;;24.40;50.30;;;;;;5046250;28;20097;-62
2022/04/05 06:07:38;;;;;;;31.52;5.78;;;24.40;50.40;;;;;;5031221;28;20097;-62
2022/04/05 06:10:07;;;;;;;15.68;5.10;;;24.40;50.60;;;;;;5031991;28;20402;-63
2022/04/05 06:12:36;;;;;;;31.67;5.60;;;24.40;50.60;;;;;;5032325;28;20480;-63
2022/04/05 06:15:02;;;;;;;22.45;5.22;;;24.40;50.60;;;;;;5030276;28;20088;-63
2022/04/05 06:17:29;;;;;;;32.53;5.47;;;24.40;50.80;;;;;;5031494;28;20140;-61
2022/04/05 06:19:55;;;;;;;27.83;5.30;;;24.30;51.00;;;;;;5030801;28;20112;-62
2022/04/05 06:22:21;;;;;;;25.65;4.85;;;24.30;51.20;;;;;;5031584;28;20085;-62
2022/04/05 06:24:48;;;;;;;12.80;4.30;;;24.20;51.40;;;;;;5044376;28;20135;-61
2022/04/05 06:27:15;;;;;;;26.10;4.63;;;24.20;51.50;;;;;;5030203;28;20112;-63
2022/04/05 06:29:41;;;;;;;25.13;4.40;;;24.10;51.50;;;;;;5027877;28;20165;-61
2022/04/05 06:32:08;;;;;;;17.58;5.00;;;24.10;51.70;;;;;;5030968;28;20089;-63
2022/04/05 06:34:34;;;;;;;19.48;4.50;;;24.00;51.90;;;;;;5029406;28;20084;-63
2022/04/05 06:37:01;;;;;;;21.67;4.45;;;24.00;52.20;;;;;;5028867;28;20114;-62
2022/04/05 06:39:27;;;;;;;27.85;4.97;;;24.00;52.50;;;;;;5029107;28;20084;-61
2022/04/05 06:41:54;;;;;;;17.10;4.40;;;23.90;52.60;;;;;;5027971;28;20074;-64
2022/04/05 06:44:20;;;;;;;17.75;4.28;;;23.90;52.70;;;;;;5028606;28;20670;-60
2022/04/05 06:46:47;;;;;;;25.83;4.68;;;23.80;53.20;;;;;;5029325;28;20070;-64
2022/04/05 06:49:13;;;;;;;14.38;3.95;;;23.70;53.50;;;;;;5029640;28;20172;-59
2022/04/05 06:51:40;;;;;;;19.17;4.20;;;23.70;53.70;;;;;;5044993;28;20495;-62
2022/04/05 06:54:06;;;;;;;21.15;4.00;;;23.70;53.80;;;;;;5028291;28;20164;-62
2022/04/05 06:56:33;;;;;;;17.35;4.35;;;23.70;54.10;;;;;;5028959;28;20076;-62
2022/04/05 06:59:00;;;;;;;21.85;4.70;;;23.70;54.20;;;;;;5029541;28;20078;-61
2022/04/05 07:01:26;;;;;;;24.83;4.05;;;23.70;54.70;;;;;;5045391;28;20127;-63
2022/04/05 07:03:52;;;;;;;19.77;4.70;;;23.60;54.90;;;;;;5028799;28;20085;-66
2022/04/05 07:06:19;;;;;;;24.42;4.30;;;23.60;55.90;;;;;;5028538;28;20086;-63
2022/04/05 07:08:47;;;;;;;22.33;4.55;;;23.50;55.40;;;;;;5044869;28;20134;-61
2022/04/05 07:11:13;;;;;;;21.38;4.13;;;23.60;55.50;;;;;;5029001;28;20120;-62
2022/04/05 07:13:40;;;;;;;13.40;4.35;;;23.40;55.80;;;;;;5027988;28;20074;-61
2022/04/05 07:16:07;;;;;;;13.40;3.78;;;23.40;56.10;;;;;;5044304;28;20081;-61
2022/04/05 07:18:33;;;;;;;20.77;4.88;;;23.40;56.20;;;;;;5028661;28;20084;-62
2022/04/05 07:21:02;;;;;;;24.15;4.35;;;23.40;56.20;;;;;;5028503;28;20077;-64
2022/04/05 07:23:29;;;;;;;19.00;4.18;;;23.30;56.30;;;;;;5044378;28;20131;-61
2022/04/05 07:25:55;;;;;;;25.92;4.32;;;23.30;56.50;;;;;;5028401;28;20118;-61
2022/04/05 07:28:21;;;;;;;19.63;4.03;;;23.20;56.90;;;;;;5026435;28;20200;-61
2022/04/05 07:30:48;;;;;;;21.85;3.88;;;23.20;56.90;;;;;;5028693;28;20120;-61
2022/04/05 07:33:14;;;;;;;22.65;4.03;;;23.20;57.00;;;;;;5011492;28;20097;-67
2022/04/05 07:35:41;;;;;;;23.70;4.13;;;23.20;57.10;;;;;;5028461;28;20963;-65
2022/04/05 07:38:07;;;;;;;21.83;4.43;;;23.10;57.40;;;;;;5044544;28;20172;-62
2022/04/05 07:40:48;;;;;;;16.52;4.20;;;23.10;57.50;;;;;;5027744;28;20132;-62
2022/04/05 07:43:20;;;;;;;27.60;4.55;;;23.00;57.90;;;;;;5028227;28;20788;-63
2022/04/05 07:45:50;;;;;;;20.80;4.68;;;22.90;58.00;;;;;;5044319;28;20121;-63
2022/04/05 07:48:21;;;;;;;19.38;4.60;;;22.90;58.10;;;;;;5027534;28;20094;-64
2022/04/05 07:50:49;;;;;;;17.92;4.78;;;22.80;58.40;;;;;;5028444;28;20105;-62
2022/04/05 07:53:16;;;;;;;15.57;4.05;;;22.90;58.60;;;;;;5027436;28;20073;-61
2022/04/05 07:55:43;;;;;;;12.95;4.38;;;22.80;58.60;;;;;;5029376;28;20112;-63
2022/04/05 07:58:09;;;;;;;14.50;4.35;;;22.60;59.10;;;;;;5045148;28;20176;-65
2022/04/05 08:00:36;;;;;;;20.95;4.82;;;22.60;59.50;;;;;;5029600;28;20445;-61
2022/04/05 08:03:03;;;;;;;17.83;4.57;;;22.50;59.60;;;;;;5028980;28;20077;-62
2022/04/05 08:05:30;;;;;;;19.58;4.53;;;22.60;59.80;;;;;;5028863;28;20176;-61
2022/04/05 08:07:57;;;;;;;27.75;4.80;;;22.60;59.90;;;;;;5028559;28;20677;-62
2022/04/05 08:10:23;;;;;;;16.63;4.45;;;22.60;60.10;;;;;;5026630;28;20449;-62
2022/04/05 08:12:51;;;;;;;26.38;4.80;;;22.50;60.00;;;;;;5027904;28;20550;-61
2022/04/05 15:21:27;;;;;;;28.20;6.87;;;20.60;98.40;;;;;;5024007;28;20197;-65
2022/04/05 15:23:55;;;;;;;28.40;6.18;;;20.70;98.00;;;;;;5029179;28;20140;-65
2022/04/05 15:26:21;;;;;;;35.53;6.78;;;20.90;97.70;;;;;;5011852;28;20070;-64
2022/04/05 15:28:47;;;;;;;28.20;6.65;;;21.10;97.10;;;;;;5029889;28;20145;-63
2022/04/05 15:31:14;;;;;;;30.52;5.43;;;21.30;96.90;;;;;;5028362;28;20476;-63
2022/04/05 15:33:40;;;;;;;24.90;4.90;;;21.40;96.60;;;;;;5044741;28;20070;-62
2022/04/05 15:36:07;;;;;;;32.80;5.63;;;21.70;96.30;;;;;;5027795;28;20109;-65
2022/04/05 15:38:34;;;;;;;29.50;5.55;;;21.80;95.90;;;;;;5027767;28;20086;-64
2022/04/05 15:41:00;;;;;;;25.10;5.70;;;22.00;95.60;;;;;;5028475;28;20176;-61
2022/04/05 15:43:27;;;;;;;26.08;5.38;;;22.20;95.50;;;;;;5029621;28;20113;-61
2022/04/05 15:45:53;;;;;;;23.25;5.57;;;22.30;95.20;;;;;;5027447;28;20112;-63
2022/04/05 15:48:20;;;;;;;27.75;5.35;;;22.40;95.00;;;;;;5028314;28;20549;-62
2022/04/05 15:50:48;;;;;;;42.65;6.22;;;22.40;94.80;;;;;;5029602;28;20077;-62
2022/04/05 15:53:15;;;;;;;32.42;6.45;;;22.60;94.80;;;;;;5048009;28;20074;-62
2022/04/05 15:55:43;;;;;;;35.65;6.32;;;22.80;94.40;;;;;;5029792;28;20082;-61
2022/04/05 15:58:09;;;;;;;27.50;5.53;;;23.10;94.00;;;;;;5060981;28;20128;-64
2022/04/05 16:00:36;;;;;;;22.92;5.30;;;23.20;93.60;;;;;;5029986;28;20585;-60
2022/04/05 16:03:03;;;;;;;25.25;6.03;;;23.20;93.60;;;;;;5045255;28;20086;-61
2022/04/05 16:05:29;;;;;;;36.92;6.07;;;23.40;93.20;;;;;;5027954;28;21467;-61
2022/04/05 16:07:56;;;;;;;22.55;5.93;;;23.60;92.60;;;;;;5043920;28;20097;-64
2022/04/05 16:10:23;;;;;;;26.20;6.18;;;23.90;92.30;;;;;;5029001;28;20074;-64
2022/04/05 16:12:49;;;;;;;22.17;6.95;;;24.00;92.00;;;;;;5028321;28;20089;-61
2022/04/05 16:15:16;;;;;;;33.33;5.70;;;24.30;91.40;;;;;;5030032;28;20120;-63
2022/04/05 16:17:42;;;;;;;29.30;7.05;;;24.50;91.00;;;;;;5028118;28;20079;-65
2022/04/05 16:20:10;;;;;;;37.53;7.05;;;24.80;90.40;;;;;;5043632;28;20083;-62
2022/04/05 16:22:37;;;;;;;33.65;7.30;;;25.20;89.10;;;;;;5011814;28;20112;-62
2022/04/05 16:25:04;;;;;;;26.17;5.55;;;25.50;87.90;;;;;;5029184;28;20115;-61
2022/04/05 16:27:32;;;;;;;30.67;6.68;;;25.60;87.20;;;;;;5026551;28;20114;-64
2022/04/05 16:29:58;;;;;;;26.65;6.32;;;25.80;86.50;;;;;;5028478;28;20073;-63
2022/04/05 16:32:25;;;;;;;33.85;5.97;;;26.00;85.80;;;;;;5027458;28;20084;-64
2022/04/05 16:34:51;;;;;;;33.35;7.03;;;26.20;85.30;;;;;;5026816;28;20547;-65
2022/04/05 16:37:18;;;;;;;22.35;5.32;;;26.30;84.90;;;;;;5027330;28;20457;-63
2022/04/05 16:39:44;;;;;;;29.02;6.30;;;26.30;83.80;;;;;;5043821;28;20159;-67
2022/04/05 16:42:11;;;;;;;33.53;6.82;;;26.50;84.30;;;;;;5043546;28;20142;-64
2022/04/05 16:44:37;;;;;;;38.70;6.72;;;26.90;83.40;;;;;;5043569;28;20123;-64
2022/04/05 16:47:05;;;;;;;32.80;6.30;;;27.10;81.30;;;;;;5043403;28;20547;-63
2022/04/05 16:49:31;;;;;;;43.65;6.30;;;27.20;79.60;;;;;;5042006;28;20101;-65
2022/04/05 16:51:57;;;;;;;29.23;5.07;;;27.30;78.70;;;;;;5026253;28;20115;-66
2022/04/05 16:54:24;;;;;;;26.85;6.05;;;27.70;77.10;;;;;;5026192;28;20065;-65
2022/04/05 16:56:51;;;;;;;31.38;7.15;;;27.80;77.50;;;;;;5027591;28;20736;-66
2022/04/05 16:59:18;;;;;;;30.17;6.18;;;28.00;76.60;;;;;;5029062;28;20456;-66
2022/04/05 17:01:44;;;;;;;24.17;6.43;;;28.20;75.60;;;;;;5042515;28;20541;-65
2022/04/05 17:04:11;;;;;;;19.98;5.60;;;28.30;73.80;;;;;;5041232;28;20081;-63
2022/04/05 17:06:37;;;;;;;24.52;6.10;;;28.50;72.00;;;;;;5025250;28;20524;-62
2022/04/05 17:09:05;;;;;;;28.23;7.20;;;28.80;70.60;;;;;;5043012;28;20103;-63
2022/04/05 17:11:32;;;;;;;63.42;7.80;;;28.90;68.90;;;;;;5029624;28;20083;-64
2022/04/05 17:13:58;;;;;;;27.67;5.70;;;28.80;68.60;;;;;;5029679;28;20175;-62
2022/04/05 17:16:25;;;;;;;19.42;6.35;;;29.20;68.70;;;;;;5030074;28;20069;-65
2022/04/05 17:18:52;;;;;;;24.80;6.40;;;29.40;65.80;;;;;;5029508;28;20095;-64
2022/04/05 17:21:18;;;;;;;26.13;6.03;;;29.50;64.00;;;;;;5030280;28;20518;-62
2022/04/05 17:23:45;;;;;;;29.15;6.95;;;30.00;62.40;;;;;;5030065;28;20126;-62
2022/04/05 17:26:12;;;;;;;23.58;6.65;;;30.10;62.70;;;;;;5030197;28;20107;-64
2022/04/05 17:28:38;;;;;;;37.63;6.93;;;29.90;61.70;;;;;;5060690;28;20093;-62
2022/04/05 17:31:04;;;;;;;26.65;7.32;;;30.30;60.30;;;;;;5035987;28;20162;-65
2022/04/05 17:33:31;;;;;;;31.25;6.32;;;30.40;60.40;;;;;;5031343;28;20079;-66
2022/04/05 17:35:57;;;;;;;33.95;6.78;;;30.70;58.80;;;;;;5029552;28;20537;-65
2022/04/05 17:38:24;;;;;;;332.98;19.42;;;30.50;58.50;;;;;;5045516;28;20084;-66
2022/04/05 17:40:50;;;;;;;296.98;24.48;;;30.90;56.90;;;;;;5030388;28;20100;-64
2022/04/05 17:43:16;;;;;;;49.22;8.13;;;30.90;56.60;;;;;;5030694;28;20524;-65
2022/04/05 17:45:45;;;;;;;39.05;7.68;;;31.40;55.80;;;;;;5030608;28;20068;-66
2022/04/05 17:48:13;;;;;;;41.38;7.00;;;31.50;54.80;;;;;;5046401;28;20085;-67
2022/04/05 17:50:39;;;;;;;33.78;7.28;;;31.40;54.30;;;;;;5013558;28;20064;-66
2022/04/05 17:53:06;;;;;;;68.82;9.85;;;31.60;54.00;;;;;;5027887;28;20101;-65
2022/04/05 17:55:33;;;;;;;40.03;6.88;;;31.40;54.10;;;;;;5028577;28;20084;-67
2022/04/05 17:57:59;;;;;;;27.02;7.68;;;31.50;53.70;;;;;;5030558;28;20080;-64
2022/04/05 18:00:26;;;;;;;31.05;7.30;;;31.50;54.30;;;;;;5032089;28;20076;-64
2022/04/05 18:02:52;;;;;;;31.92;8.13;;;31.50;55.00;;;;;;5029361;28;20569;-68
2022/04/05 18:05:19;;;;;;;46.35;8.52;;;31.60;54.20;;;;;;5045918;28;20175;-67
2022/04/05 18:07:47;;;;;;;28.58;7.85;;;31.60;54.20;;;;;;5030801;28;20503;-66
2022/04/05 18:10:15;;;;;;;25.00;8.00;;;31.40;54.30;;;;;;5045322;28;20122;-66
2022/04/05 18:12:43;;;;;;;31.00;8.70;;;31.80;52.70;;;;;;5030225;28;20112;-65
2022/04/05 18:15:11;;;;;;;33.50;8.43;;;32.00;53.00;;;;;;5062693;28;20110;-68
2022/04/05 18:17:38;;;;;;;27.85;8.75;;;31.90;52.50;;;;;;5026490;28;20079;-68
2022/04/05 18:20:07;;;;;;;30.75;10.68;;;32.30;52.30;;;;;;5027780;28;20075;-69
2022/04/05 18:22:34;;;;;;;36.92;9.10;;;32.50;51.40;;;;;;5028622;28;20466;-67
2022/04/05 18:25:01;;;;;;;36.13;8.25;;;32.40;50.80;;;;;;5028318;28;20088;-66
2022/04/05 18:27:28;;;;;;;29.23;9.38;;;32.80;49.00;;;;;;5027897;28;20449;-67
2022/04/05 18:29:56;;;;;;;25.23;8.52;;;32.30;49.60;;;;;;5029145;28;20446;-65
2022/04/05 18:32:22;;;;;;;26.05;8.02;;;32.60;49.80;;;;;;5027578;28;20076;-63
2022/04/05 18:34:49;;;;;;;26.10;7.30;;;32.30;48.60;;;;;;5029434;28;20070;-64
2022/04/05 18:37:17;;;;;;;24.00;8.98;;;32.60;46.80;;;;;;5029582;28;20607;-64
2022/04/05 18:39:43;;;;;;;24.50;7.90;;;32.40;47.60;;;;;;5028466;28;20072;-63
2022/04/05 18:42:10;;;;;;;41.05;9.93;;;32.70;47.50;;;;;;5029538;28;20103;-63
2022/04/05 18:44:39;;;;;;;29.15;8.52;;;32.20;48.10;;;;;;5029946;28;20439;-63
2022/04/05 18:47:06;;;;;;;42.13;10.30;;;32.40;48.00;;;;;;5028494;28;20077;-63
2022/04/05 18:49:33;;;;;;;31.27;10.02;;;32.80;48.00;;;;;;5043972;28;20126;-65
2022/04/05 18:52:00;;;;;;;30.05;10.02;;;32.50;48.30;;;;;;5029301;28;20080;-64
2022/04/05 18:54:27;;;;;;;38.17;10.35;;;32.30;48.70;;;;;;5027860;28;20099;-64
2022/04/05 18:56:53;;;;;;;45.35;11.48;;;32.70;49.30;;;;;;5026347;28;20090;-62
2022/04/05 18:59:19;;;;;;;36.20;9.75;;;33.00;48.20;;;;;;5042682;28;20072;-61
2022/04/05 19:01:46;;;;;;;32.75;8.90;;;33.00;48.00;;;;;;5027384;28;20458;-60
2022/04/05 19:04:14;;;;;;;40.00;9.90;;;32.80;48.00;;;;;;5026370;28;20663;-62
2022/04/05 19:06:40;;;;;;;29.42;8.38;;;33.20;46.50;;;;;;5028348;28;20438;-61
2022/04/05 19:09:08;;;;;;;36.05;8.63;;;33.10;44.90;;;;;;5027410;28;20083;-64
2022/04/05 19:11:36;;;;;;;27.38;8.40;;;33.40;44.10;;;;;;5026808;28;20099;-62
2022/04/05 19:14:04;;;;;;;26.30;6.57;;;33.60;42.50;;;;;;5027353;28;20063;-61
2022/04/05 19:16:30;;;;;;;32.92;8.10;;;33.90;40.10;;;;;;5044810;28;20641;-65
2022/04/05 19:18:57;;;;;;;23.95;8.57;;;33.70;41.70;;;;;;5026819;28;20074;-65
2022/04/05 19:21:23;;;;;;;39.42;7.93;;;33.70;41.70;;;;;;5029045;28;20099;-62
2022/04/05 19:23:50;;;;;;;25.55;8.27;;;33.80;42.20;;;;;;5028599;28;20074;-62
2022/04/05 19:26:16;;;;;;;31.77;8.00;;;33.90;42.10;;;;;;5028669;28;20068;-64
2022/04/05 19:28:45;;;;;;;26.73;7.80;;;33.90;41.40;;;;;;5028613;28;20131;-63
2022/04/05 19:31:12;;;;;;;58.10;7.35;;;33.80;40.30;;;;;;5026414;28;20061;-62
2022/04/05 19:33:39;;;;;;;32.92;7.28;;;34.00;39.60;;;;;;5028983;28;20093;-63
2022/04/05 19:36:07;;;;;;;55.97;7.93;;;34.20;38.40;;;;;;5045205;28;20062;-65
2022/04/05 19:38:35;;;;;;;31.45;6.95;;;34.30;37.00;;;;;;5045279;28;20158;-68
2022/04/05 19:41:03;;;;;;;25.85;6.78;;;34.20;37.60;;;;;;5031261;28;20426;-71